Thorn Hill, TN

9:43 AM EDT on June 02, 2015 (GMT -0400)
Adams Grocery | | Change Station
CLOSE
Current Station
Personal Weather Station
Location: Mooresburg, TN
Elevation: 1230 ft
Nearby Weather Stations

Elev 1230 ft 36.40 °N, 83.23 °W | Updated 3 minutes ago

Overcast
Overcast
71.0 °F
Feels Like 71.0 °F
N
0.0
Wind Variable Wind from West
Gusts 3.8 mph

Today
High -- | Low -- °F
--% Chance of Precip.
Yesterday
High -- | Low -- °F
Precip. -- in
6:16 AM 8:46 PM
Full, 100% visible
Pressure 30.10 in
Visibility 9.0 miles
Clouds Few 900 ft
Mostly Cloudy 1300 ft
Mostly Cloudy 3800 ft
Dew Point 69 °F
Humidity 94%
Rainfall 0.00 in
Snow Depth Not available.
UV 2 out of 12
Pollen 4.40 out of 12
Air Quality Not available.
Flu Activity Sporadic
METAR K0VG 021315Z AUTO 00000KT 9SM FEW009 BKN013 BKN038 19/17 A3010 RMK AO2

More Conditions Fewer Conditions

Pressure 30.10 in
Visibility 9.0 miles
Clouds Few 900 ft
Mostly Cloudy 1300 ft
Mostly Cloudy 3800 ft
Dew Point 69 °F
Humidity 94%
Rainfall 0.00 in
Snow Depth Not available.
UV 2 out of 12
Pollen 4.40 out of 12
Air Quality Not available.
Flu Activity Sporadic
METAR K0VG 021315Z AUTO 00000KT 9SM FEW009 BKN013 BKN038 19/17 A3010 RMK AO2

More Conditions Fewer Conditions

10-Day Weather Forecast

Almanac

Astronomy

Jun. 02, 2015 Rise Set
Actual Time
Civil Twilight
Nautical Twilight
Astronomical Twilight
Moon
Length of Visible Light
Length of Day
Tomorrow will be .
, % of the Moon is Illuminated

Today's Extremes

State Highs State Lows

Community

WunderPhotos

Upload Photos

1,825,914 photos uploaded!

WunderBlogs® & News

Nearby

Air Quality

  Air Quality AQ Index Pollutant
Not available.

Snow Depth

Station Depth Elevation

Earthquake Activity

City Distance Mag. Time & Date
Minimum magnitude displayed is 2.5.

Coastal Water Temperatures

Place Temperature

Stations

Nearby Weather Stations

Station Location Temp. Windchill Dew Point Humidity Wind Precip. Elev Updated Type